»·PEaware :: N67796 KOLM-KOTH

N67796 :: KOLM-KOTH

FLIGHT INFORMATION

Flight Status: Arrived
Operator: Privately registered:
United States
More flights under this callsign
Pilot: Drew L. (13237)
Aircraft: PIPER PA-34 SENECA
(PA34)
More flights by this aircraft type
Origin: KOLM Olympia
United States
Destination: KOTH North Bend Mun
United States
More flights between these airports :: More routes between these airports
Route: +VFR FF
File this flight plan on PilotEdge
Remarks:
Altitude:
(Current/Filed)
15,500ft
Speed:
(Current/Filed)
455kts
Departed: 15-Dec-17 07:57 PM
Arrived: 15-Dec-17 09:49 PM
Distance/Time
Traveled:
221nm/1:52
Distance/Time
To Go:
Arrived

Flight Plot

Page will automatically refresh every two minutes.

Flight plan parsing failed; only flown route is shown


Map Options




Map Legend


Flown Route
Filed Route
Departure Airport
Arrival Airport
Navaid (VOR, NDB)
Fix

Horizontal Profiles

Position Reports

Time Latitude Longitude Heading Altitude Ground
Speed
15-Dec-17 19:50 46.975500 -122.899099 280 210ft 0kts
15-Dec-17 19:51 46.975500 -122.899099 280 210ft 0kts
15-Dec-17 19:52 46.975500 -122.899099 280 210ft 0kts
15-Dec-17 19:53 46.975500 -122.899099 280 210ft 0kts
15-Dec-17 19:54 46.975500 -122.899099 280 210ft 0kts
15-Dec-17 19:55 46.975500 -122.899099 280 210ft 0kts
15-Dec-17 19:56 46.975500 -122.899099 280 210ft 0kts
15-Dec-17 19:57 46.975500 -122.899099 280 210ft 0kts
15-Dec-17 19:58 46.975811 -122.899850 275 210ft 0kts
15-Dec-17 19:59 46.975881 -122.900736 280 210ft 7kts
15-Dec-17 20:00 46.975975 -122.901389 281 210ft 0kts
15-Dec-17 20:01 46.976130 -122.902617 251 210ft 7kts
15-Dec-17 20:02 46.975512 -122.902851 192 210ft 29kts
15-Dec-17 20:03 46.950085 -122.909560 189 978ft 105kts
15-Dec-17 20:04 46.920444 -122.917447 193 1991ft 108kts
15-Dec-17 20:05 46.892995 -122.911941 130 3227ft 110kts
15-Dec-17 20:06 46.882800 -122.870648 104 4440ft 111kts
15-Dec-17 20:07 46.876203 -122.831916 102 5392ft 115kts
15-Dec-17 20:08 46.875004 -122.823001 99 5615ft 108kts
15-Dec-17 20:09 46.871032 -122.779853 99 6148ft 107kts
15-Dec-17 20:10 46.868370 -122.739841 96 7128ft 108kts
15-Dec-17 20:11 46.861468 -122.698024 104 7890ft 107kts
15-Dec-17 20:12 46.848978 -122.656095 114 8979ft 124kts
15-Dec-17 20:13 46.834022 -122.609766 114 9962ft 133kts
15-Dec-17 20:14 46.818304 -122.561071 114 10955ft 133kts
15-Dec-17 20:15 46.802661 -122.512598 114 11950ft 131kts
15-Dec-17 20:16 46.787422 -122.465367 114 12942ft 127kts
15-Dec-17 20:17 46.772274 -122.418403 114 13645ft 143kts
15-Dec-17 20:18 46.754454 -122.363135 114 13642ft 168kts
15-Dec-17 20:19 46.736082 -122.306142 115 13640ft 172kts
15-Dec-17 20:20 46.715709 -122.242930 115 13640ft 173kts
15-Dec-17 20:21 46.695529 -122.180294 115 13640ft 173kts
15-Dec-17 20:22 46.675109 -122.116895 115 13640ft 173kts
15-Dec-17 20:23 46.654705 -122.053525 115 13640ft 173kts
15-Dec-17 20:24 46.634372 -121.990352 115 13640ft 173kts
15-Dec-17 20:25 46.613925 -121.926801 115 13640ft 173kts
15-Dec-17 20:26 46.593597 -121.863603 114 13640ft 173kts
15-Dec-17 20:27 46.590863 -121.796931 84 13640ft 173kts
15-Dec-17 20:28 46.594960 -121.727753 84 13640ft 173kts
15-Dec-17 20:29 46.598215 -121.666913 84 13581ft 174kts
15-Dec-17 20:30 46.599644 -121.596466 84 13591ft 175kts
15-Dec-17 20:31 46.601077 -121.525922 84 13591ft 175kts
15-Dec-17 20:32 46.602522 -121.455327 84 13591ft 175kts
15-Dec-17 20:33 46.624281 -121.404218 7 13592ft 163kts
15-Dec-17 20:34 46.669467 -121.397056 4 13591ft 164kts
15-Dec-17 20:35 46.707030 -121.409598 283 13590ft 169kts
15-Dec-17 20:36 46.677428 -121.463224 222 13591ft 180kts
15-Dec-17 20:37 46.628795 -121.456328 164 13591ft 183kts
15-Dec-17 20:38 46.579477 -121.437504 164 13591ft 184kts
15-Dec-17 20:39 46.531660 -121.419239 164 13591ft 184kts
15-Dec-17 20:40 46.482294 -121.400381 164 13591ft 184kts
15-Dec-17 20:41 46.432908 -121.381515 164 13592ft 184kts
15-Dec-17 20:42 46.383696 -121.362715 164 13592ft 184kts
15-Dec-17 20:43 46.337319 -121.368025 223 13594ft 179kts
15-Dec-17 20:44 46.298477 -121.413418 218 13592ft 181kts
15-Dec-17 20:45 46.257980 -121.456521 217 13592ft 181kts
15-Dec-17 20:46 46.217350 -121.499030 217 13592ft 181kts
15-Dec-17 20:47 46.176599 -121.541505 217 13592ft 181kts
15-Dec-17 20:48 46.135968 -121.583766 217 13592ft 181kts
15-Dec-17 20:49 46.095177 -121.626115 217 13592ft 181kts
15-Dec-17 20:50 46.054514 -121.668252 217 13592ft 181kts
15-Dec-17 20:51 46.013946 -121.710212 217 13593ft 181kts
15-Dec-17 20:52 45.973291 -121.752185 217 13593ft 181kts
15-Dec-17 20:53 45.932546 -121.794174 217 13593ft 181kts
15-Dec-17 20:54 45.897615 -121.830109 217 13592ft 181kts
15-Dec-17 20:55 45.857947 -121.870850 217 13590ft 181kts
15-Dec-17 20:56 45.817038 -121.912790 217 13593ft 183kts
15-Dec-17 20:57 45.774572 -121.956276 217 13591ft 192kts
15-Dec-17 20:58 45.732005 -121.999361 220 13527ft 199kts
15-Dec-17 20:59 45.695379 -122.035888 229 13611ft 189kts
15-Dec-17 21:00 45.653514 -122.079490 229 13616ft 189kts
15-Dec-17 21:01 45.611292 -122.122544 229 13617ft 190kts
15-Dec-17 21:02 45.568781 -122.165662 228 13617ft 190kts
15-Dec-17 21:03 45.526286 -122.208664 228 13617ft 190kts
15-Dec-17 21:04 45.483718 -122.251659 228 13617ft 190kts
15-Dec-17 21:05 45.441231 -122.294490 229 13617ft 190kts
15-Dec-17 21:06 45.398631 -122.337356 228 13617ft 190kts
15-Dec-17 21:07 45.356074 -122.380093 228 13617ft 190kts
15-Dec-17 21:08 45.313300 -122.422971 228 13617ft 190kts
15-Dec-17 21:09 45.270669 -122.465624 228 13617ft 190kts
15-Dec-17 21:10 45.227811 -122.508424 228 13617ft 190kts
15-Dec-17 21:11 45.184905 -122.551192 228 13618ft 190kts
15-Dec-17 21:12 45.142140 -122.593739 228 13618ft 190kts
15-Dec-17 21:13 45.106480 -122.629156 228 13618ft 190kts
15-Dec-17 21:14 45.057981 -122.677250 228 13624ft 191kts
15-Dec-17 21:15 45.015087 -122.719684 228 13624ft 192kts
15-Dec-17 21:16 44.979211 -122.755112 228 13624ft 192kts
15-Dec-17 21:17 44.936131 -122.797587 228 13624ft 192kts
15-Dec-17 21:18 44.894658 -122.838406 228 13619ft 192kts
15-Dec-17 21:19 44.852162 -122.880139 228 13616ft 191kts
15-Dec-17 21:20 44.802264 -122.929075 228 13616ft 190kts
15-Dec-17 21:21 44.766755 -122.963831 228 13616ft 190kts
15-Dec-17 21:22 44.723946 -123.005657 228 13616ft 190kts
15-Dec-17 21:23 44.681128 -123.047416 228 13616ft 190kts
15-Dec-17 21:24 44.638354 -123.089055 228 13616ft 190kts
15-Dec-17 21:25 44.595512 -123.130684 228 13617ft 190kts
15-Dec-17 21:26 44.552712 -123.172196 228 13617ft 190kts
15-Dec-17 21:27 44.509738 -123.213801 228 13617ft 190kts
15-Dec-17 21:28 44.466837 -123.255258 228 13617ft 190kts
15-Dec-17 21:29 44.423870 -123.296706 228 13617ft 191kts
15-Dec-17 21:30 44.381017 -123.337967 228 13617ft 191kts
15-Dec-17 21:31 44.337983 -123.379328 228 13617ft 191kts
15-Dec-17 21:32 44.295028 -123.420539 228 13617ft 191kts
15-Dec-17 21:33 44.251971 -123.461772 228 13617ft 191kts
15-Dec-17 21:34 44.209079 -123.502774 228 13618ft 191kts
15-Dec-17 21:35 44.166123 -123.543763 228 13618ft 191kts
15-Dec-17 21:36 44.123171 -123.584675 228 13618ft 191kts
15-Dec-17 21:37 44.080022 -123.625700 228 13618ft 191kts
15-Dec-17 21:38 44.037525 -123.666040 227 13624ft 192kts
15-Dec-17 21:39 43.994146 -123.707140 227 13624ft 193kts
15-Dec-17 21:40 43.950673 -123.748242 227 13624ft 193kts
15-Dec-17 21:41 43.907092 -123.789379 227 13624ft 193kts
15-Dec-17 21:42 43.864758 -123.829254 227 13616ft 192kts
15-Dec-17 21:43 43.821453 -123.870034 227 13348ft 194kts
15-Dec-17 21:44 43.778006 -123.910823 227 12644ft 197kts
15-Dec-17 21:45 43.733524 -123.952440 226 11889ft 195kts
15-Dec-17 21:46 43.691481 -123.991766 228 11130ft 183kts
15-Dec-17 21:47 43.650176 -124.030396 228 10373ft 182kts
15-Dec-17 21:48 43.609425 -124.068404 228 9463ft 178kts
15-Dec-17 21:49 43.569129 -124.106022 226 8473ft 179kts
15-Dec-17 21:50 43.530196 -124.136020 200 6798ft 139kts
15-Dec-17 21:51 43.490832 -124.149381 201 3932ft 154kts
15-Dec-17 21:52 43.459061 -124.168738 218 1933ft 136kts
15-Dec-17 21:53 43.438839 -124.201008 246 1034ft 94kts
15-Dec-17 21:54 43.426368 -124.232220 240 315ft 91kts
15-Dec-17 21:55 43.418719 -124.250877 241 19ft 19kts

Navigation Log

Ident Type
Flight plan parsing failed, navigation log unavailable